Time;durP1;ratioP1;P1;durP2;ratioP2;P2;SDS_P1;SDS_P2;PMS_P1;PMS_P2;Temp;Humidity;BMP_temperature;BMP_pressure;BME280_temperature;BME280_humidity;BME280_pressure;Samples;Min_cycle;Max_cycle;Signal;HPM_P1;HPM_P2
2023/12/27 00:01:47;;;;;;;13.65;11.38;;;4.70;99.90;;;;;;5049323;28;20041;-80
2023/12/27 00:04:14;;;;;;;12.10;10.88;;;4.70;99.90;;;;;;5017285;28;20052;-80
2023/12/27 00:06:41;;;;;;;13.07;11.90;;;4.60;99.90;;;;;;5027797;28;21029;-80
2023/12/27 00:09:08;;;;;;;12.73;11.52;;;4.50;99.90;;;;;;5016487;28;20044;-80
2023/12/27 00:11:36;;;;;;;13.50;12.18;;;4.50;99.90;;;;;;5008166;28;20656;-80
2023/12/27 00:14:03;;;;;;;14.30;12.88;;;4.50;99.90;;;;;;5013035;28;20060;-81
2023/12/27 00:16:30;;;;;;;14.82;13.40;;;4.40;99.90;;;;;;5032351;28;20037;-80
2023/12/27 00:18:57;;;;;;;15.38;13.35;;;4.40;99.90;;;;;;5004528;28;20547;-80
2023/12/27 00:21:24;;;;;;;19.48;14.43;;;4.20;99.90;;;;;;5029140;28;20050;-80
2023/12/27 00:23:51;;;;;;;16.50;14.38;;;4.10;99.90;;;;;;5050850;28;20100;-79
2023/12/27 00:26:18;;;;;;;15.73;13.57;;;4.10;99.90;;;;;;5030827;28;20069;-79
2023/12/27 00:28:54;;;;;;;14.32;13.02;;;4.10;99.90;;;;;;5038635;28;20053;-80
2023/12/27 00:31:20;;;;;;;14.27;12.75;;;4.00;99.90;;;;;;5024299;28;20048;-80
2023/12/27 00:33:47;;;;;;;14.32;13.00;;;3.80;99.90;;;;;;5034412;28;20049;-80
2023/12/27 00:36:20;;;;;;;15.35;13.80;;;3.70;99.90;;;;;;5039731;28;20051;-81
2023/12/27 00:38:47;;;;;;;14.82;13.32;;;3.70;99.90;;;;;;5042700;28;20041;-81
2023/12/27 00:41:14;;;;;;;15.32;13.75;;;3.60;99.90;;;;;;5030624;28;20570;-80
2023/12/27 00:43:40;;;;;;;17.58;13.88;;;3.60;99.90;;;;;;5030935;28;20583;-80
2023/12/27 00:46:08;;;;;;;15.73;14.10;;;3.60;99.90;;;;;;5031541;28;20063;-79
2023/12/27 00:48:35;;;;;;;15.23;13.88;;;3.60;99.90;;;;;;5024310;28;20054;-78
2023/12/27 00:51:02;;;;;;;15.48;14.35;;;3.50;99.90;;;;;;5042506;28;20055;-78
2023/12/27 00:53:29;;;;;;;15.82;14.45;;;3.40;99.90;;;;;;5022379;28;20045;-77
2023/12/27 00:55:56;;;;;;;16.13;14.52;;;3.30;99.90;;;;;;5027444;28;20084;-78
2023/12/27 00:58:23;;;;;;;15.70;14.23;;;3.20;99.90;;;;;;5057482;28;20578;-77
2023/12/27 01:00:50;;;;;;;19.55;14.93;;;3.10;99.90;;;;;;5027635;28;20484;-77
2023/12/27 01:03:17;;;;;;;15.88;14.55;;;2.90;99.90;;;;;;5017421;28;20057;-78
2023/12/27 01:05:45;;;;;;;19.70;15.00;;;2.80;99.90;;;;;;5038163;28;20544;-78
2023/12/27 01:08:12;;;;;;;17.45;14.10;;;2.70;99.90;;;;;;5042237;28;20103;-77
2023/12/27 01:10:39;;;;;;;24.17;15.68;;;2.90;99.90;;;;;;5033109;28;20053;-77
2023/12/27 01:13:06;;;;;;;17.83;15.80;;;2.70;99.90;;;;;;5037791;28;20052;-77
2023/12/27 01:15:32;;;;;;;19.92;16.83;;;2.60;99.90;;;;;;5029617;28;20072;-77
2023/12/27 01:18:00;;;;;;;18.52;14.40;;;2.70;99.90;;;;;;5032426;28;20040;-77
2023/12/27 01:20:28;;;;;;;21.88;14.57;;;2.70;99.90;;;;;;5024902;28;20511;-77
2023/12/27 01:22:55;;;;;;;16.40;12.88;;;2.60;99.90;;;;;;5022629;28;20053;-77
2023/12/27 01:25:22;;;;;;;14.02;12.70;;;2.60;99.90;;;;;;5018937;28;20057;-78
2023/12/27 01:27:48;;;;;;;15.40;12.45;;;2.70;99.90;;;;;;5017728;28;20048;-78
2023/12/27 01:30:18;;;;;;;12.73;11.38;;;2.60;99.90;;;;;;5030633;28;20079;-78
2023/12/27 01:32:45;;;;;;;17.33;11.10;;;2.70;99.90;;;;;;5046961;28;20619;-77
2023/12/27 01:35:12;;;;;;;15.13;11.10;;;2.80;99.90;;;;;;5030708;28;20056;-78
2023/12/27 01:37:39;;;;;;;17.58;11.35;;;2.80;99.90;;;;;;5026414;28;20053;-77
2023/12/27 01:40:07;;;;;;;18.92;11.30;;;2.60;99.90;;;;;;5034471;28;20068;-78
2023/12/27 01:42:34;;;;;;;13.90;10.68;;;2.60;99.90;;;;;;5010493;28;20065;-77
2023/12/27 01:45:01;;;;;;;11.93;11.05;;;2.60;99.90;;;;;;5035661;28;20049;-78
2023/12/27 01:47:29;;;;;;;19.30;11.23;;;2.60;99.90;;;;;;5021561;28;20523;-78
2023/12/27 01:49:55;;;;;;;22.52;12.43;;;2.60;99.90;;;;;;5036978;28;20072;-77
2023/12/27 01:52:23;;;;;;;13.73;12.40;;;2.60;99.90;;;;;;5018399;28;20632;-77
2023/12/27 01:54:50;;;;;;;19.92;11.93;;;2.50;99.90;;;;;;5025046;28;20132;-78
2023/12/27 01:57:17;;;;;;;18.88;11.50;;;2.50;99.90;;;;;;5051646;28;20102;-78
2023/12/27 01:59:45;;;;;;;16.83;12.40;;;2.60;99.90;;;;;;5023944;28;20088;-78
2023/12/27 02:02:13;;;;;;;18.73;11.88;;;2.60;99.90;;;;;;5032457;28;20037;-78
2023/12/27 02:04:43;;;;;;;13.95;12.50;;;2.60;99.90;;;;;;5032229;28;20049;-79
2023/12/27 02:07:11;;;;;;;14.05;12.75;;;2.60;99.90;;;;;;5030946;28;20078;-78
2023/12/27 02:09:54;;;;;;;22.90;13.82;;;2.60;99.90;;;;;;5036624;28;20048;-78
2023/12/27 02:12:31;;;;;;;16.73;13.95;;;2.50;99.90;;;;;;5022464;28;20045;-79
2023/12/27 02:14:58;;;;;;;27.10;15.98;;;2.30;99.90;;;;;;5031239;28;20045;-78
2023/12/27 02:17:26;;;;;;;16.55;12.88;;;2.30;99.90;;;;;;5037300;28;20052;-78
2023/12/27 02:19:55;;;;;;;16.58;12.23;;;2.40;99.90;;;;;;5034712;28;20056;-80
2023/12/27 02:22:23;;;;;;;19.52;11.80;;;2.40;99.90;;;;;;5038074;28;20053;-79
2023/12/27 02:24:52;;;;;;;17.73;11.75;;;2.40;99.90;;;;;;5020097;28;21550;-78
2023/12/27 02:27:18;;;;;;;11.32;10.27;;;2.40;99.90;;;;;;5014351;28;20040;-79
2023/12/27 02:29:45;;;;;;;18.40;13.18;;;2.40;99.90;;;;;;5052924;28;20049;-79
2023/12/27 02:32:12;;;;;;;16.60;14.05;;;2.50;99.90;;;;;;5035854;28;20120;-79
2023/12/27 02:34:39;;;;;;;15.05;12.43;;;2.50;99.90;;;;;;5012316;28;20064;-79
2023/12/27 02:37:06;;;;;;;22.05;13.02;;;2.50;99.90;;;;;;5024027;28;20056;-78
2023/12/27 02:39:33;;;;;;;18.98;12.88;;;2.50;99.90;;;;;;5005787;28;20057;-78
2023/12/27 02:42:00;;;;;;;20.27;13.15;;;2.40;99.90;;;;;;5006546;28;20040;-76
2023/12/27 02:44:28;;;;;;;20.20;13.38;;;2.20;99.90;;;;;;5043227;28;20041;-78
2023/12/27 02:46:56;;;;;;;16.60;13.18;;;2.20;99.90;;;;;;5056085;28;20029;-78
2023/12/27 02:49:23;;;;;;;17.98;12.88;;;2.10;99.90;;;;;;5047628;28;20068;-79
2023/12/27 02:51:49;;;;;;;19.73;13.95;;;1.90;99.90;;;;;;5034714;28;20047;-78
2023/12/27 02:54:16;;;;;;;21.98;13.73;;;1.90;99.90;;;;;;5024394;28;20060;-79
2023/12/27 02:56:43;;;;;;;20.10;14.48;;;1.90;99.90;;;;;;5044941;28;20077;-78
2023/12/27 02:59:10;;;;;;;19.08;14.13;;;2.10;99.90;;;;;;5037100;28;20124;-79
2023/12/27 03:01:36;;;;;;;18.08;13.57;;;2.00;99.90;;;;;;5034282;28;20094;-78
2023/12/27 03:04:03;;;;;;;17.13;12.55;;;1.90;99.90;;;;;;5040078;28;20044;-79
2023/12/27 03:06:30;;;;;;;25.80;13.18;;;2.00;99.90;;;;;;5046547;28;20037;-81
2023/12/27 03:08:57;;;;;;;19.77;11.75;;;2.10;99.90;;;;;;5030600;28;20040;-81
2023/12/27 03:11:24;;;;;;;17.33;11.35;;;1.80;99.90;;;;;;5033544;28;20048;-81
2023/12/27 03:13:51;;;;;;;16.60;10.23;;;1.80;99.90;;;;;;5011644;28;20057;-79
2023/12/27 03:16:19;;;;;;;21.33;12.52;;;1.80;99.90;;;;;;5009152;28;20044;-79
2023/12/27 03:18:46;;;;;;;16.67;11.25;;;1.70;99.90;;;;;;5027511;28;20064;-80
2023/12/27 03:21:13;;;;;;;19.70;10.93;;;1.70;99.90;;;;;;5036611;28;20032;-80
2023/12/27 03:23:40;;;;;;;20.48;11.60;;;1.70;99.90;;;;;;5008511;28;20054;-80
2023/12/27 03:26:07;;;;;;;14.20;12.60;;;1.90;99.90;;;;;;5023807;28;20036;-79
2023/12/27 03:28:34;;;;;;;21.00;12.30;;;1.80;99.90;;;;;;5021287;28;20495;-79
2023/12/27 03:31:01;;;;;;;26.60;12.57;;;1.80;99.90;;;;;;5020863;28;20051;-79
2023/12/27 03:33:28;;;;;;;19.88;10.43;;;1.80;99.90;;;;;;5022135;28;20045;-79
2023/12/27 03:35:55;;;;;;;18.00;11.48;;;1.90;99.90;;;;;;5033366;28;20037;-79
2023/12/27 03:38:23;;;;;;;16.25;10.25;;;1.80;99.90;;;;;;5044708;28;20071;-80
2023/12/27 03:40:50;;;;;;;16.80;11.10;;;1.80;99.90;;;;;;5025811;28;20562;-80
2023/12/27 03:43:18;;;;;;;23.83;12.05;;;1.80;99.90;;;;;;5010439;28;20141;-80
2023/12/27 03:45:45;;;;;;;21.63;13.38;;;1.80;99.90;;;;;;5029266;28;20317;-80
2023/12/27 03:48:12;;;;;;;20.33;14.20;;;1.80;99.90;;;;;;5025147;28;20044;-79
2023/12/27 03:50:39;;;;;;;17.42;13.85;;;1.80;99.90;;;;;;5019423;28;20065;-78
2023/12/27 03:53:06;;;;;;;16.55;13.07;;;1.90;99.90;;;;;;5018949;28;20049;-80
2023/12/27 03:55:34;;;;;;;24.75;14.30;;;2.10;99.90;;;;;;5029096;28;20056;-80
2023/12/27 03:58:01;;;;;;;16.58;14.23;;;2.00;99.90;;;;;;5033065;28;20553;-79
2023/12/27 04:00:29;;;;;;;19.10;15.57;;;1.90;99.90;;;;;;5035068;28;20080;-80
2023/12/27 04:02:55;;;;;;;19.17;15.25;;;1.80;99.90;;;;;;5024530;28;20068;-79
2023/12/27 04:05:22;;;;;;;19.83;17.48;;;1.90;99.90;;;;;;5030168;28;20025;-79
2023/12/27 04:07:49;;;;;;;19.50;17.15;;;1.90;99.90;;;;;;5036598;28;20073;-79
2023/12/27 04:10:16;;;;;;;20.25;16.83;;;1.90;99.90;;;;;;5018697;28;20480;-79
2023/12/27 04:12:43;;;;;;;23.48;18.10;;;2.00;99.90;;;;;;5021574;28;20064;-79
2023/12/27 04:15:10;;;;;;;21.55;17.92;;;2.00;99.90;;;;;;5051154;28;20045;-79
2023/12/27 04:17:38;;;;;;;21.67;17.48;;;1.90;99.90;;;;;;5030730;28;20699;-78
2023/12/27 04:20:06;;;;;;;20.02;17.88;;;1.90;99.90;;;;;;5053143;28;20068;-79
2023/12/27 04:22:32;;;;;;;18.88;17.23;;;1.80;99.90;;;;;;5014444;28;20052;-77
2023/12/27 04:24:59;;;;;;;30.17;18.45;;;1.90;99.90;;;;;;5026533;28;20069;-79
2023/12/27 04:27:26;;;;;;;19.17;17.27;;;1.90;99.90;;;;;;5009568;28;20075;-77
2023/12/27 04:29:53;;;;;;;21.55;17.45;;;1.90;99.90;;;;;;4995291;28;20052;-78
2023/12/27 04:32:20;;;;;;;20.25;16.92;;;1.90;99.90;;;;;;5029345;28;20060;-77
2023/12/27 04:34:46;;;;;;;19.40;16.65;;;1.90;99.90;;;;;;5009159;28;20850;-81
2023/12/27 04:37:14;;;;;;;21.60;16.83;;;2.00;99.90;;;;;;4999856;28;20036;-82
2023/12/27 04:39:41;;;;;;;18.88;17.35;;;2.00;99.90;;;;;;5011415;28;20057;-80
2023/12/27 04:42:08;;;;;;;21.48;18.25;;;1.90;99.90;;;;;;5035301;28;20044;-81
2023/12/27 04:44:34;;;;;;;21.02;18.88;;;1.70;99.90;;;;;;5011522;28;20077;-81
2023/12/27 04:47:02;;;;;;;19.98;17.38;;;1.70;99.90;;;;;;5006784;28;20053;-81
2023/12/27 04:49:29;;;;;;;18.70;16.88;;;1.80;99.90;;;;;;5003168;28;20045;-81
2023/12/27 04:51:57;;;;;;;17.50;15.73;;;1.80;99.90;;;;;;5022673;28;20057;-80
2023/12/27 04:54:24;;;;;;;16.75;14.88;;;1.70;99.90;;;;;;5015095;28;20110;-81
2023/12/27 04:56:54;;;;;;;17.42;14.35;;;1.60;99.90;;;;;;5029727;28;20053;-81
2023/12/27 04:59:22;;;;;;;15.77;13.70;;;1.70;99.90;;;;;;5009260;28;20112;-79
2023/12/27 05:01:50;;;;;;;16.20;13.10;;;1.70;99.90;;;;;;5027659;28;20045;-79
2023/12/27 05:04:17;;;;;;;20.10;13.23;;;1.70;99.90;;;;;;4991788;28;20044;-79
2023/12/27 05:06:44;;;;;;;19.05;14.15;;;1.70;99.90;;;;;;5031889;28;20040;-80
2023/12/27 05:09:12;;;;;;;24.80;16.15;;;1.70;99.90;;;;;;5052058;28;20040;-79
2023/12/27 05:11:39;;;;;;;28.90;16.58;;;1.80;99.90;;;;;;5022055;28;21369;-79
2023/12/27 05:14:06;;;;;;;20.73;17.08;;;1.90;99.90;;;;;;5049328;28;20072;-80
2023/12/27 05:16:33;;;;;;;30.27;18.10;;;2.20;99.90;;;;;;5041281;28;20040;-79
2023/12/27 05:19:00;;;;;;;28.42;16.73;;;2.20;99.90;;;;;;5036336;28;20058;-80
2023/12/27 05:21:27;;;;;;;23.13;15.52;;;2.20;99.90;;;;;;5036064;28;20048;-80
2023/12/27 05:23:54;;;;;;;17.20;14.40;;;2.00;99.90;;;;;;5031600;28;20045;-79
2023/12/27 05:26:21;;;;;;;22.75;14.02;;;2.00;99.90;;;;;;5034058;28;20052;-80
2023/12/27 05:28:48;;;;;;;24.70;13.60;;;2.00;99.90;;;;;;5027234;28;20050;-81
2023/12/27 05:31:15;;;;;;;21.30;13.85;;;1.90;99.90;;;;;;5059188;28;20045;-80
2023/12/27 05:33:43;;;;;;;29.90;15.20;;;2.00;99.90;;;;;;5022266;28;20103;-79
2023/12/27 05:36:10;;;;;;;24.15;14.25;;;2.10;99.90;;;;;;5033849;28;20419;-79
2023/12/27 05:38:37;;;;;;;29.38;16.48;;;1.90;99.90;;;;;;5036426;28;20040;-79
2023/12/27 05:41:04;;;;;;;28.55;17.05;;;1.80;99.90;;;;;;5046877;28;20075;-80
2023/12/27 05:43:31;;;;;;;28.50;18.45;;;1.80;99.90;;;;;;5011124;28;20041;-80
2023/12/27 05:45:58;;;;;;;27.70;18.13;;;1.90;99.90;;;;;;5016225;28;20042;-80
2023/12/27 05:48:25;;;;;;;36.22;19.52;;;2.00;99.90;;;;;;5030711;28;20522;-79
2023/12/27 05:50:52;;;;;;;25.50;18.90;;;2.00;99.90;;;;;;5026549;28;20116;-80
2023/12/27 05:53:18;;;;;;;31.80;18.83;;;1.90;99.90;;;;;;5045208;28;20418;-80
2023/12/27 05:55:45;;;;;;;28.92;18.48;;;1.90;99.90;;;;;;5024036;28;20042;-78
2023/12/27 05:58:12;;;;;;;32.33;20.10;;;1.80;99.90;;;;;;4994930;28;20077;-79
2023/12/27 06:00:39;;;;;;;32.47;20.55;;;1.80;99.90;;;;;;5039543;28;20042;-80
2023/12/27 06:03:06;;;;;;;31.67;21.70;;;1.90;99.90;;;;;;5052429;28;20052;-78
2023/12/27 06:05:33;;;;;;;34.00;23.80;;;1.80;99.90;;;;;;5056000;28;20033;-79
2023/12/27 06:08:00;;;;;;;36.20;24.80;;;1.70;99.90;;;;;;5057386;28;20036;-79
2023/12/27 06:10:27;;;;;;;47.22;23.92;;;1.80;99.90;;;;;;5057250;28;20335;-78
2023/12/27 06:12:54;;;;;;;39.13;25.92;;;1.90;99.90;;;;;;5050573;28;20025;-78
2023/12/27 06:15:20;;;;;;;44.78;25.42;;;1.70;99.90;;;;;;5061561;28;20058;-77
2023/12/27 06:17:47;;;;;;;36.22;24.38;;;1.60;99.90;;;;;;5057184;28;20045;-78
2023/12/27 06:20:14;;;;;;;32.58;22.73;;;1.50;99.90;;;;;;5068018;28;20512;-77
2023/12/27 06:22:42;;;;;;;42.72;23.60;;;1.50;99.90;;;;;;5074662;28;20116;-81
2023/12/27 06:25:09;;;;;;;33.70;25.17;;;1.60;99.90;;;;;;5036703;28;20041;-80
2023/12/27 06:27:35;;;;;;;38.75;25.40;;;1.60;99.90;;;;;;5053907;28;20083;-81
2023/12/27 06:30:03;;;;;;;44.03;24.67;;;1.70;99.90;;;;;;5055881;28;20116;-81
2023/12/27 06:32:30;;;;;;;44.15;26.02;;;1.80;99.90;;;;;;5058257;28;20032;-81
2023/12/27 06:34:57;;;;;;;43.05;24.52;;;1.80;99.90;;;;;;5053468;28;20060;-81
2023/12/27 06:37:24;;;;;;;35.75;21.65;;;1.80;99.90;;;;;;5038825;28;20033;-80
2023/12/27 06:39:51;;;;;;;45.38;23.20;;;1.90;99.90;;;;;;5072392;28;20029;-78
2023/12/27 06:42:18;;;;;;;35.20;20.60;;;1.90;99.90;;;;;;5055348;28;20059;-78
2023/12/27 06:44:45;;;;;;;32.80;19.42;;;1.80;99.90;;;;;;5063889;28;20048;-77
2023/12/27 06:47:12;;;;;;;41.08;22.88;;;1.90;99.90;;;;;;5051842;28;20039;-78
2023/12/27 06:49:38;;;;;;;38.95;23.20;;;2.00;99.90;;;;;;5031657;28;20069;-79
2023/12/27 06:52:05;;;;;;;47.78;25.42;;;2.20;99.90;;;;;;5052639;28;20080;-79
2023/12/27 06:54:32;;;;;;;55.13;26.60;;;2.30;99.90;;;;;;5036245;28;20060;-81
2023/12/27 06:56:59;;;;;;;40.65;26.90;;;2.40;99.90;;;;;;5039822;28;20064;-80
2023/12/27 06:59:26;;;;;;;52.95;27.02;;;2.40;99.90;;;;;;5048829;28;20056;-80
2023/12/27 07:01:53;;;;;;;45.85;27.35;;;2.40;99.90;;;;;;5036204;28;20048;-79
2023/12/27 07:04:20;;;;;;;54.17;28.38;;;2.40;99.90;;;;;;5036640;28;20106;-78
2023/12/27 07:06:47;;;;;;;54.28;29.77;;;2.30;99.90;;;;;;5038514;28;20045;-79
2023/12/27 07:09:16;;;;;;;41.25;28.38;;;2.30;99.90;;;;;;5041279;28;20040;-78
2023/12/27 07:11:43;;;;;;;45.80;29.05;;;2.20;99.90;;;;;;5050417;28;20048;-78
2023/12/27 07:14:09;;;;;;;51.75;29.88;;;2.10;99.90;;;;;;5022347;28;20127;-78
2023/12/27 07:16:36;;;;;;;50.25;29.95;;;2.10;99.90;;;;;;5056557;28;20045;-80
2023/12/27 07:19:03;;;;;;;50.13;30.33;;;2.10;99.90;;;;;;5060043;28;20052;-78
2023/12/27 07:21:30;;;;;;;47.38;29.52;;;2.10;99.90;;;;;;5056676;28;20075;-78
2023/12/27 07:23:57;;;;;;;59.15;30.02;;;2.10;99.90;;;;;;5046473;28;20163;-77
2023/12/27 07:26:24;;;;;;;50.53;30.60;;;2.10;99.90;;;;;;5019268;28;20056;-78
2023/12/27 07:28:50;;;;;;;52.42;27.63;;;2.20;99.90;;;;;;5060476;28;20050;-78
2023/12/27 07:31:18;;;;;;;49.67;30.98;;;2.30;99.90;;;;;;5064474;28;20052;-79
2023/12/27 07:33:45;;;;;;;60.05;30.80;;;2.30;99.90;;;;;;5060677;28;20475;-76
2023/12/27 07:36:12;;;;;;;67.43;37.70;;;2.40;99.90;;;;;;5051096;28;20146;-77
2023/12/27 07:38:39;;;;;;;67.03;40.08;;;2.50;99.90;;;;;;5033975;28;20079;-77
2023/12/27 07:41:05;;;;;;;57.83;30.25;;;2.70;99.90;;;;;;5043055;28;20040;-77
2023/12/27 07:43:32;;;;;;;55.47;30.95;;;2.80;99.90;;;;;;5021387;28;20128;-77
2023/12/27 07:45:59;;;;;;;51.92;31.42;;;2.90;99.90;;;;;;5023012;28;20045;-78
2023/12/27 07:48:26;;;;;;;59.95;31.33;;;2.90;99.90;;;;;;5036882;28;20753;-77
2023/12/27 07:50:53;;;;;;;57.53;29.33;;;3.10;99.90;;;;;;5016823;28;20701;-78
2023/12/27 07:53:20;;;;;;;54.28;29.80;;;3.10;99.90;;;;;;5032746;28;20059;-77
2023/12/27 07:55:47;;;;;;;55.53;32.38;;;3.20;99.90;;;;;;5025035;28;20054;-77
2023/12/27 07:58:14;;;;;;;53.30;31.10;;;3.20;99.90;;;;;;5004694;28;20076;-77
2023/12/27 08:00:40;;;;;;;45.97;27.83;;;3.30;99.90;;;;;;5029699;28;20049;-76
2023/12/27 08:03:08;;;;;;;44.78;29.58;;;3.40;99.90;;;;;;5021521;28;20289;-77
2023/12/27 08:05:35;;;;;;;43.13;28.63;;;3.60;99.90;;;;;;5011764;28;20060;-77
2023/12/27 08:08:06;;;;;;;39.35;27.77;;;3.80;99.90;;;;;;5020627;28;20045;-77
2023/12/27 08:10:32;;;;;;;50.17;27.55;;;3.90;99.90;;;;;;5023899;28;20043;-76
2023/12/27 08:13:00;;;;;;;44.85;24.70;;;4.10;99.90;;;;;;5025274;28;20048;-74
2023/12/27 08:15:27;;;;;;;31.35;19.65;;;4.10;99.90;;;;;;5024087;28;20057;-76
2023/12/27 08:17:54;;;;;;;42.10;21.85;;;4.10;99.90;;;;;;5029900;28;20049;-76
2023/12/27 08:20:22;;;;;;;35.05;20.25;;;4.20;99.90;;;;;;5033533;28;20045;-76
2023/12/27 08:22:51;;;;;;;37.08;20.55;;;4.20;99.90;;;;;;5035510;28;20049;-76
2023/12/27 08:25:18;;;;;;;33.95;19.77;;;4.20;99.90;;;;;;5051570;28;20076;-77
2023/12/27 08:27:45;;;;;;;51.78;21.20;;;4.30;99.90;;;;;;5049966;28;20076;-76
2023/12/27 08:30:13;;;;;;;27.67;18.25;;;4.30;99.90;;;;;;5040786;28;20127;-76
2023/12/27 08:32:40;;;;;;;31.65;16.95;;;4.30;99.90;;;;;;5028446;28;20053;-77
2023/12/27 08:35:07;;;;;;;33.47;18.05;;;4.20;99.90;;;;;;5031636;28;20071;-76
2023/12/27 08:37:34;;;;;;;31.90;16.27;;;4.20;99.90;;;;;;5039537;28;20526;-77
2023/12/27 08:40:01;;;;;;;44.13;17.23;;;4.20;99.90;;;;;;5035995;28;20049;-77
2023/12/27 08:42:27;;;;;;;47.58;17.98;;;4.20;99.90;;;;;;5034619;28;20048;-77
2023/12/27 08:44:54;;;;;;;31.85;15.20;;;4.10;99.90;;;;;;5037335;28;20051;-77
2023/12/27 08:47:22;;;;;;;34.15;16.45;;;4.10;99.90;;;;;;5036090;28;20069;-77
2023/12/27 08:49:50;;;;;;;41.58;17.98;;;4.10;99.90;;;;;;5040480;28;20045;-76
2023/12/27 08:52:17;;;;;;;36.03;16.13;;;4.10;99.90;;;;;;5018676;28;20053;-77
2023/12/27 08:54:44;;;;;;;35.25;15.90;;;4.10;99.90;;;;;;5031543;28;20100;-77
2023/12/27 08:57:11;;;;;;;34.03;16.25;;;4.20;99.90;;;;;;5030655;28;20037;-77
2023/12/27 08:59:37;;;;;;;34.70;17.45;;;4.30;99.90;;;;;;5031162;28;20675;-77
2023/12/27 09:02:04;;;;;;;33.72;15.27;;;4.30;99.90;;;;;;5029739;28;20045;-77
2023/12/27 09:04:32;;;;;;;30.02;15.57;;;4.30;99.90;;;;;;5034328;28;20068;-77
2023/12/27 09:06:59;;;;;;;32.22;15.07;;;4.40;99.90;;;;;;5038079;28;20033;-77
2023/12/27 09:09:26;;;;;;;37.72;15.93;;;4.40;99.90;;;;;;5034543;28;20040;-77
2023/12/27 09:11:52;;;;;;;33.13;16.35;;;4.40;99.90;;;;;;5035961;28;20051;-77
2023/12/27 09:14:20;;;;;;;42.78;16.40;;;4.40;99.90;;;;;;5029991;28;20045;-76
2023/12/27 09:16:47;;;;;;;40.17;17.73;;;4.50;99.90;;;;;;5034349;28;20075;-77
2023/12/27 09:19:13;;;;;;;29.92;14.90;;;4.50;99.90;;;;;;5037890;28;20041;-77
2023/12/27 09:21:44;;;;;;;33.70;16.30;;;4.50;99.90;;;;;;5034094;28;20050;-78
2023/12/27 09:24:12;;;;;;;30.73;15.63;;;4.50;99.90;;;;;;5034946;28;20108;-78
2023/12/27 09:26:39;;;;;;;35.60;17.05;;;4.60;99.90;;;;;;5030018;28;20041;-78
2023/12/27 09:29:09;;;;;;;31.77;17.40;;;4.50;99.90;;;;;;5032049;28;20041;-78
2023/12/27 09:31:36;;;;;;;39.42;16.00;;;4.60;99.90;;;;;;5032660;28;20044;-77
2023/12/27 09:34:03;;;;;;;42.75;18.13;;;4.50;99.90;;;;;;5027250;28;20053;-78
2023/12/27 09:36:31;;;;;;;43.28;18.60;;;4.50;99.90;;;;;;5003786;28;20584;-78
2023/12/27 09:38:58;;;;;;;28.90;15.60;;;4.60;99.90;;;;;;5035817;28;20108;-77
2023/12/27 09:41:26;;;;;;;34.13;17.20;;;4.70;99.90;;;;;;5011270;28;20941;-78
2023/12/27 09:43:54;;;;;;;26.05;14.57;;;4.70;99.90;;;;;;5047351;28;20052;-78
2023/12/27 09:46:23;;;;;;;30.20;15.32;;;4.80;99.90;;;;;;5023461;28;20157;-77
2023/12/27 09:48:51;;;;;;;35.42;19.58;;;4.80;99.90;;;;;;5033432;28;20048;-77
2023/12/27 09:51:23;;;;;;;33.30;15.88;;;4.90;99.90;;;;;;5026737;28;20064;-77
2023/12/27 09:53:51;;;;;;;26.75;14.88;;;5.00;99.90;;;;;;5039058;28;20048;-76
2023/12/27 09:56:22;;;;;;;35.97;15.15;;;5.00;99.90;;;;;;5030925;28;20365;-77
2023/12/27 09:58:55;;;;;;;31.92;14.55;;;5.10;99.90;;;;;;5021253;28;20035;-76
2023/12/27 10:01:26;;;;;;;53.65;13.20;;;5.10;99.90;;;;;;5063657;28;20251;-77
2023/12/27 10:04:26;;;;;;;23.80;14.65;;;5.20;99.90;;;;;;5031827;28;20044;-77
2023/12/27 10:06:53;;;;;;;34.75;16.83;;;5.30;99.90;;;;;;4990518;28;20107;-77
2023/12/27 10:09:21;;;;;;;50.95;19.27;;;5.40;99.90;;;;;;5031555;28;20044;-77
2023/12/27 10:11:48;;;;;;;32.15;15.77;;;5.40;99.90;;;;;;5023730;28;20065;-77
2023/12/27 10:14:16;;;;;;;37.70;16.08;;;5.40;99.90;;;;;;5035114;28;20075;-77
2023/12/27 10:16:43;;;;;;;33.70;16.92;;;5.40;99.90;;;;;;5029656;28;20496;-78
2023/12/27 10:19:36;;;;;;;38.58;16.75;;;5.50;99.90;;;;;;5029797;28;20641;-78
2023/12/27 10:22:03;;;;;;;41.72;17.95;;;5.50;99.90;;;;;;5031550;28;20056;-77
2023/12/27 10:24:30;;;;;;;40.38;17.30;;;5.60;99.90;;;;;;5028107;28;20053;-78
2023/12/27 10:26:57;;;;;;;38.10;18.83;;;5.60;99.90;;;;;;5027292;28;20046;-77
2023/12/27 10:29:24;;;;;;;33.72;17.85;;;5.70;99.90;;;;;;5029141;28;20080;-78
2023/12/27 10:31:51;;;;;;;28.52;18.55;;;5.70;99.90;;;;;;5030241;28;20432;-78
2023/12/27 10:34:20;;;;;;;35.97;17.50;;;5.80;99.90;;;;;;5029771;28;20111;-78
2023/12/27 10:36:49;;;;;;;54.78;24.38;;;5.90;99.90;;;;;;5032444;28;20049;-78
2023/12/27 10:39:19;;;;;;;41.72;21.77;;;5.90;99.90;;;;;;5029402;28;20730;-78
2023/12/27 10:41:46;;;;;;;51.83;30.38;;;6.00;99.90;;;;;;5012247;28;20825;-79
2023/12/27 10:44:17;;;;;;;53.08;25.42;;;6.00;99.90;;;;;;5028586;28;20111;-78
2023/12/27 10:46:44;;;;;;;40.78;19.55;;;6.00;99.90;;;;;;5009864;28;20728;-77
2023/12/27 10:49:15;;;;;;;41.92;22.70;;;6.10;99.90;;;;;;5015749;28;20307;-80
2023/12/27 10:51:43;;;;;;;37.63;20.77;;;6.10;99.90;;;;;;5031450;28;20037;-78
2023/12/27 10:54:11;;;;;;;41.30;19.80;;;6.10;99.90;;;;;;5027106;28;20057;-77
2023/12/27 10:56:39;;;;;;;25.42;16.10;;;6.20;99.90;;;;;;5012512;28;20160;-77
2023/12/27 10:59:07;;;;;;;33.70;17.80;;;6.20;99.90;;;;;;5026625;28;20776;-77
2023/12/27 11:01:38;;;;;;;41.67;19.60;;;6.30;99.90;;;;;;5017164;28;20045;-77
2023/12/27 11:04:09;;;;;;;37.78;18.58;;;6.30;99.90;;;;;;5015330;28;20037;-78
2023/12/27 11:06:37;;;;;;;33.40;16.05;;;6.30;99.90;;;;;;5032867;28;20037;-78
2023/12/27 11:09:07;;;;;;;28.60;14.98;;;6.30;99.90;;;;;;5024914;28;20136;-79
2023/12/27 11:11:38;;;;;;;32.03;15.55;;;6.40;99.90;;;;;;5033713;28;20053;-81
2023/12/27 11:14:08;;;;;;;36.38;17.13;;;6.40;99.90;;;;;;5024501;28;20045;-77
2023/12/27 11:16:37;;;;;;;27.42;15.70;;;6.40;99.90;;;;;;5025679;28;20041;-80
2023/12/27 11:19:06;;;;;;;38.28;15.30;;;6.60;99.90;;;;;;5020269;28;20104;-80
2023/12/27 11:21:37;;;;;;;23.67;12.77;;;6.70;99.90;;;;;;5014196;28;20052;-77
2023/12/27 11:24:05;;;;;;;26.60;13.25;;;6.70;99.90;;;;;;5027799;28;20105;-77
2023/12/27 11:26:36;;;;;;;27.27;17.45;;;6.70;99.90;;;;;;5023134;28;20040;-77
2023/12/27 11:29:10;;;;;;;28.10;16.02;;;6.80;99.90;;;;;;5023650;28;20045;-77
2023/12/27 11:31:38;;;;;;;30.38;17.80;;;6.80;99.90;;;;;;5016197;28;20041;-77
2023/12/27 11:34:06;;;;;;;21.60;12.63;;;6.90;99.90;;;;;;5028275;28;20048;-76
2023/12/27 11:36:34;;;;;;;26.85;15.10;;;6.80;99.90;;;;;;5059981;28;20460;-77
2023/12/27 11:39:15;;;;;;;26.55;14.50;;;6.80;99.90;;;;;;5025782;28;20049;-77
2023/12/27 11:41:42;;;;;;;25.70;15.43;;;6.80;99.90;;;;;;5022293;28;20115;-78
2023/12/27 11:44:09;;;;;;;71.82;39.65;;;6.90;99.90;;;;;;5026303;28;20102;-78
2023/12/27 11:46:36;;;;;;;41.70;23.98;;;6.90;99.90;;;;;;5019443;28;20896;-77
2023/12/27 11:49:03;;;;;;;43.28;28.80;;;6.90;99.90;;;;;;5029100;28;20041;-78
2023/12/27 11:51:36;;;;;;;37.75;20.38;;;6.90;99.90;;;;;;5020047;28;20102;-77
2023/12/27 11:54:05;;;;;;;35.03;19.05;;;6.90;99.90;;;;;;5058518;28;20041;-77
2023/12/27 11:56:34;;;;;;;23.90;14.13;;;6.90;99.90;;;;;;5021103;28;20033;-78
2023/12/27 11:59:06;;;;;;;30.15;18.83;;;6.90;99.90;;;;;;5032819;28;20123;-77
2023/12/27 12:01:36;;;;;;;23.38;14.77;;;6.90;99.90;;;;;;5022421;28;20134;-78
2023/12/27 12:04:25;;;;;;;32.40;15.25;;;6.80;99.90;;;;;;5029574;28;20037;-78
2023/12/27 12:06:56;;;;;;;29.77;16.73;;;6.90;99.90;;;;;;5008302;28;20564;-78
2023/12/27 12:09:42;;;;;;;29.23;18.30;;;6.80;99.90;;;;;;5026421;28;20053;-78
2023/12/27 12:12:25;;;;;;;25.35;15.02;;;6.90;99.90;;;;;;5029001;28;20045;-77
2023/12/27 12:14:55;;;;;;;31.80;13.93;;;6.90;99.90;;;;;;5043306;28;20049;-78
2023/12/27 12:17:26;;;;;;;23.73;15.63;;;6.90;99.90;;;;;;5025527;28;20130;-78
2023/12/27 12:19:55;;;;;;;30.63;19.80;;;6.90;99.90;;;;;;5024239;28;20404;-77
2023/12/27 12:22:22;;;;;;;30.48;16.63;;;6.90;99.90;;;;;;5016795;28;20052;-77
2023/12/27 12:24:49;;;;;;;20.90;14.30;;;6.90;99.90;;;;;;5028096;28;20041;-77
2023/12/27 12:27:21;;;;;;;30.00;19.08;;;6.90;99.90;;;;;;5028329;28;20102;-77
2023/12/27 12:29:48;;;;;;;35.75;20.67;;;6.90;99.90;;;;;;5025438;28;20046;-77
2023/12/27 12:32:14;;;;;;;44.28;27.10;;;6.80;99.90;;;;;;5024634;28;20040;-76
2023/12/27 12:34:42;;;;;;;32.28;22.85;;;6.90;99.90;;;;;;5017898;28;20105;-76
2023/12/27 12:37:10;;;;;;;34.92;24.00;;;6.80;99.90;;;;;;5029552;28;20048;-77
2023/12/27 12:39:37;;;;;;;39.10;26.00;;;6.90;99.90;;;;;;5029965;28;20051;-76